Time;durP1;ratioP1;P1;durP2;ratioP2;P2;SDS_P1;SDS_P2;PMS_P1;PMS_P2;Temp;Humidity;BMP_temperature;BMP_pressure;BME280_temperature;BME280_humidity;BME280_pressure;Samples;Min_cycle;Max_cycle;Signal;HPM_P1;HPM_P2
2023/12/02 00:02:21;;;;;;;32.60;8.88;;;;;;;-2.44;100.00;100710.66;6266014;28;20585;-71
2023/12/02 00:05:23;;;;;;;21.65;8.10;;;;;;;-2.70;100.00;100702.09;6260697;28;20366;-70
2023/12/02 00:08:25;;;;;;;26.52;9.27;;;;;;;-2.56;100.00;100697.78;6257011;28;20048;-71
2023/12/02 00:11:27;;;;;;;22.35;7.82;;;;;;;-2.47;100.00;100696.94;6251499;28;20061;-71
2023/12/02 00:14:29;;;;;;;18.50;7.22;;;;;;;-2.45;100.00;100700.34;6252254;28;20045;-71
2023/12/02 00:17:30;;;;;;;21.35;7.50;;;;;;;-2.59;100.00;100692.63;6252449;28;20049;-71
2023/12/02 00:20:31;;;;;;;25.25;8.85;;;;;;;-2.61;100.00;100696.94;6252589;28;20053;-71
2023/12/02 00:23:34;;;;;;;27.00;8.18;;;;;;;-2.72;100.00;100696.97;6254709;28;20053;-71
2023/12/02 00:26:35;;;;;;;25.23;9.68;;;;;;;-2.55;100.00;100699.50;6253059;28;20057;-71
2023/12/02 00:29:36;;;;;;;27.55;8.55;;;;;;;-2.49;100.00;100702.09;6252281;28;20057;-71
2023/12/02 00:32:38;;;;;;;24.77;8.00;;;;;;;-2.62;100.00;100696.09;6252436;28;20046;-71
2023/12/02 00:35:39;;;;;;;32.38;8.40;;;;;;;-2.57;100.00;100688.38;6252061;28;20365;-71
2023/12/02 00:38:42;;;;;;;26.17;8.02;;;;;;;-2.50;100.00;100692.63;6251988;28;20327;-71
2023/12/02 00:41:43;;;;;;;20.85;7.38;;;;;;;-2.52;100.00;100688.38;6251702;28;20057;-71
2023/12/02 00:44:44;;;;;;;34.17;9.90;;;;;;;-2.47;100.00;100689.22;6252173;28;20061;-71
2023/12/02 00:47:46;;;;;;;21.05;8.95;;;;;;;-2.45;100.00;100687.47;6251954;28;20048;-71
2023/12/02 00:50:47;;;;;;;25.13;9.60;;;;;;;-2.59;100.00;100683.25;6251716;28;20049;-71
2023/12/02 00:53:50;;;;;;;21.23;7.43;;;;;;;-2.45;100.00;100687.47;6251546;28;20343;-71
2023/12/02 00:56:51;;;;;;;20.90;7.63;;;;;;;-2.34;100.00;100675.47;6251609;28;20073;-71
2023/12/02 00:59:53;;;;;;;29.40;10.15;;;;;;;-2.52;100.00;100684.06;6251428;28;20057;-70
2023/12/02 01:02:54;;;;;;;27.15;9.60;;;;;;;-2.40;100.00;100678.06;6251301;28;20156;-70
2023/12/02 01:05:55;;;;;;;25.27;8.88;;;;;;;-2.42;100.00;100674.63;6251641;28;20052;-71
2023/12/02 01:08:58;;;;;;;36.40;10.98;;;;;;;-2.34;100.00;100678.91;6251144;28;20041;-71
2023/12/02 01:11:59;;;;;;;19.73;8.35;;;;;;;-2.33;100.00;100675.47;6251444;28;20049;-71
2023/12/02 01:15:01;;;;;;;30.25;10.05;;;;;;;-2.21;100.00;100674.59;6251033;28;20052;-71
2023/12/02 01:18:02;;;;;;;30.70;10.40;;;;;;;-2.39;100.00;100675.47;6251117;28;20046;-71
2023/12/02 01:21:03;;;;;;;31.10;10.07;;;;;;;-2.30;100.00;100684.91;6250675;28;20107;-71
2023/12/02 01:24:07;;;;;;;28.85;10.65;;;;;;;-2.28;100.00;100685.75;6250879;28;20052;-71
2023/12/02 01:27:09;;;;;;;34.47;11.63;;;;;;;-2.16;100.00;100688.31;6250962;28;20045;-71
2023/12/02 01:30:11;;;;;;;31.77;11.25;;;;;;;-2.00;100.00;100686.53;6250896;28;20060;-71
2023/12/02 01:33:12;;;;;;;21.58;10.10;;;;;;;-1.99;100.00;100683.13;6250789;28;20053;-70
2023/12/02 01:36:14;;;;;;;22.17;10.00;;;;;;;-1.86;100.00;100692.50;6252150;28;20354;-71
2023/12/02 01:39:17;;;;;;;34.47;10.70;;;;;;;-1.89;100.00;100684.78;6254034;28;20052;-71
2023/12/02 01:42:18;;;;;;;24.95;9.90;;;;;;;-2.06;100.00;100686.56;6253371;28;20057;-71
2023/12/02 01:45:19;;;;;;;26.33;9.25;;;;;;;-1.95;100.00;100694.22;6251114;28;20053;-71
2023/12/02 01:48:22;;;;;;;27.52;10.82;;;;;;;-1.83;100.00;100692.47;6250729;28;20068;-71
2023/12/02 01:51:24;;;;;;;31.13;12.10;;;;;;;-1.98;100.00;100689.13;6250907;28;20050;-71
2023/12/02 01:54:26;;;;;;;27.85;9.25;;;;;;;-2.13;100.00;100682.31;6250462;28;20053;-71
2023/12/02 01:57:28;;;;;;;24.17;9.32;;;;;;;-1.94;100.00;100677.94;6250587;28;20394;-71
2023/12/02 02:00:30;;;;;;;27.70;10.75;;;;;;;-1.84;100.00;100689.94;6250388;28;20350;-71
2023/12/02 02:03:32;;;;;;;26.35;10.68;;;;;;;-1.76;100.00;100677.03;6250142;28;20050;-71
2023/12/02 02:06:33;;;;;;;24.02;9.35;;;;;;;-1.65;100.00;100681.25;6250328;28;20064;-71
2023/12/02 02:09:45;;;;;;;36.22;9.45;;;;;;;-1.58;100.00;100680.38;6250118;28;20049;-71
2023/12/02 02:12:46;;;;;;;29.10;10.55;;;;;;;-1.66;100.00;100681.28;6250461;28;20098;-71
2023/12/02 02:15:48;;;;;;;34.85;9.55;;;;;;;-1.66;100.00;100681.28;6249795;28;20335;-71
2023/12/02 02:18:49;;;;;;;21.17;8.00;;;;;;;-1.53;100.00;100688.06;6250444;28;20052;-71
2023/12/02 02:21:53;;;;;;;26.95;10.25;;;;;;;-1.51;100.00;100686.34;6250066;28;20343;-71
2023/12/02 02:24:55;;;;;;;31.52;10.05;;;;;;;-1.51;100.00;100686.34;6249984;28;20346;-71
2023/12/02 02:27:56;;;;;;;24.20;9.10;;;;;;;-1.49;100.00;100687.19;6250157;28;20067;-71
2023/12/02 02:30:57;;;;;;;28.25;10.48;;;;;;;-1.52;100.00;100688.94;6249948;28;20064;-71
2023/12/02 02:33:59;;;;;;;33.85;11.10;;;;;;;-1.59;100.00;100690.66;6252028;28;20056;-70
2023/12/02 02:37:01;;;;;;;28.13;10.32;;;;;;;-1.52;100.00;100688.94;6254612;28;20049;-71
2023/12/02 02:40:05;;;;;;;26.55;10.32;;;;;;;-1.47;100.00;100694.91;6254888;28;20045;-71
2023/12/02 02:43:07;;;;;;;29.35;10.63;;;;;;;-1.54;100.00;100686.38;6254752;28;20049;-71
2023/12/02 02:46:08;;;;;;;28.52;10.75;;;;;;;-1.48;100.00;100690.63;6255246;28;20354;-71
2023/12/02 02:49:09;;;;;;;28.13;10.38;;;;;;;-1.46;100.00;100689.75;6255197;28;20046;-70
2023/12/02 02:52:12;;;;;;;31.98;11.20;;;;;;;-1.39;100.00;100686.28;6255192;28;20053;-70
2023/12/02 02:55:14;;;;;;;27.58;10.25;;;;;;;-1.42;100.00;100681.13;6255291;28;20056;-70
2023/12/02 02:58:15;;;;;;;33.85;12.68;;;;;;;-1.43;100.00;100682.00;6254691;28;20046;-71
2023/12/02 03:01:17;;;;;;;28.92;11.35;;;;;;;-1.41;100.00;100684.56;6254319;28;20050;-70
2023/12/02 03:04:18;;;;;;;30.75;9.90;;;;;;;-1.38;100.00;100676.81;6254371;28;20049;-71
2023/12/02 03:07:21;;;;;;;28.92;10.23;;;;;;;-1.35;100.00;100681.97;6254064;28;20050;-71
2023/12/02 03:10:23;;;;;;;37.10;10.80;;;;;;;-1.40;100.00;100686.31;6254047;28;20066;-71
2023/12/02 03:13:24;;;;;;;36.97;10.07;;;;;;;-1.37;100.00;100681.97;6253216;28;20050;-70
2023/12/02 03:16:26;;;;;;;27.13;10.88;;;;;;;-1.35;100.00;100687.13;6254361;28;20061;-71
2023/12/02 03:19:27;;;;;;;30.58;11.50;;;;;;;-1.41;100.00;100680.28;6254050;28;20464;-71
2023/12/02 03:22:30;;;;;;;32.63;10.20;;;;;;;-1.38;100.00;100690.56;6253859;28;20049;-71
2023/12/02 03:25:31;;;;;;;26.20;10.32;;;;;;;-1.46;100.00;100689.75;6253993;28;20057;-71
2023/12/02 03:28:32;;;;;;;32.53;10.60;;;;;;;-1.43;100.00;100684.59;6253560;28;20053;-71
2023/12/02 03:31:34;;;;;;;31.17;10.13;;;;;;;-1.45;100.00;100693.16;6253503;28;20077;-71
2023/12/02 03:34:35;;;;;;;28.40;11.07;;;;;;;-1.51;100.00;100683.75;6253382;28;20096;-71
2023/12/02 03:37:39;;;;;;;32.22;11.00;;;;;;;-1.52;100.00;100688.94;6253341;28;20430;-70
2023/12/02 03:40:40;;;;;;;31.23;9.82;;;;;;;-1.44;100.00;100693.19;6253247;28;20320;-70
2023/12/02 03:43:41;;;;;;;28.17;11.48;;;;;;;-1.48;100.00;100686.34;6253428;28;20046;-71
2023/12/02 03:46:44;;;;;;;36.13;12.10;;;;;;;-1.51;100.00;100688.91;6253079;28;20054;-71
2023/12/02 03:49:45;;;;;;;28.88;11.45;;;;;;;-1.46;100.00;100689.75;6253416;28;20041;-71
2023/12/02 03:52:48;;;;;;;32.65;10.05;;;;;;;-1.46;100.00;100689.75;6252851;28;20057;-70
2023/12/02 03:55:50;;;;;;;29.63;11.35;;;;;;;-1.46;100.00;100691.47;6253279;28;20136;-72
2023/12/02 03:58:51;;;;;;;29.63;11.65;;;;;;;-1.52;100.00;100692.34;6253107;28;20049;-71
2023/12/02 04:01:53;;;;;;;37.00;12.75;;;;;;;-1.50;100.00;100692.34;6252706;28;20160;-72
2023/12/02 04:04:54;;;;;;;35.25;12.10;;;;;;;-1.46;100.00;100692.31;6252542;28;20065;-71
2023/12/02 04:07:57;;;;;;;33.08;11.10;;;;;;;-1.46;100.00;100689.75;6252497;28;20045;-70
2023/12/02 04:10:58;;;;;;;45.88;14.13;;;;;;;-1.44;100.00;100700.06;6252775;28;20049;-71
2023/12/02 04:13:59;;;;;;;36.33;11.40;;;;;;;-1.50;100.00;100689.75;6252475;28;20053;-70
2023/12/02 04:17:01;;;;;;;32.90;12.55;;;;;;;-1.44;100.00;100693.19;6252805;28;20049;-71
2023/12/02 04:20:08;;;;;;;36.15;13.43;;;;;;;-1.59;100.00;100688.97;6252735;28;20045;-70
2023/12/02 04:23:11;;;;;;;33.53;11.82;;;;;;;-1.57;100.00;100697.53;6252476;28;20049;-71
2023/12/02 04:26:12;;;;;;;30.95;11.10;;;;;;;-1.63;100.00;100702.72;6252429;28;20053;-71
2023/12/02 04:29:13;;;;;;;33.55;11.93;;;;;;;-1.63;100.00;100700.16;6252612;28;20045;-71
2023/12/02 04:32:15;;;;;;;39.88;13.93;;;;;;;-1.63;100.00;100697.56;6252217;28;20072;-71
2023/12/02 04:35:16;;;;;;;33.67;11.77;;;;;;;-1.64;100.00;100701.00;6252212;28;20045;-71
2023/12/02 04:38:19;;;;;;;37.65;12.80;;;;;;;-1.57;100.00;100705.25;6251779;28;20056;-70
2023/12/02 04:41:20;;;;;;;37.05;13.05;;;;;;;-1.64;100.00;100713.03;6251694;28;20061;-71
2023/12/02 04:44:21;;;;;;;41.25;12.82;;;;;;;-1.47;100.00;100710.38;6251693;28;20113;-71
2023/12/02 04:47:23;;;;;;;32.42;11.45;;;;;;;-1.41;100.00;100708.66;6251646;28;20052;-71
2023/12/02 04:50:24;;;;;;;33.90;10.57;;;;;;;-1.44;100.00;100718.09;6251840;28;20052;-71
2023/12/02 04:53:27;;;;;;;54.13;12.60;;;;;;;-1.55;100.00;100713.84;6251510;28;20053;-71
2023/12/02 04:56:28;;;;;;;33.97;11.60;;;;;;;-1.60;100.00;100714.72;6251296;28;20056;-71
2023/12/02 04:59:29;;;;;;;34.58;11.48;;;;;;;-1.64;100.00;100715.59;6251702;28;20045;-70
2023/12/02 05:02:31;;;;;;;37.10;11.48;;;;;;;-1.59;100.00;100716.44;6251677;28;20052;-71
2023/12/02 05:05:33;;;;;;;35.83;12.35;;;;;;;-1.58;100.00;100715.59;6251356;28;20052;-71
2023/12/02 05:08:36;;;;;;;28.95;10.30;;;;;;;-1.65;100.00;100714.75;6250944;28;20053;-71
2023/12/02 05:11:37;;;;;;;37.28;11.10;;;;;;;-1.58;100.00;100721.59;6251252;28;20052;-71
2023/12/02 05:14:39;;;;;;;32.28;10.93;;;;;;;-1.59;100.00;100716.44;6251199;28;20049;-70
2023/12/02 05:17:40;;;;;;;41.08;12.82;;;;;;;-1.68;100.00;100716.47;6263946;28;20147;-70
2023/12/02 05:20:41;;;;;;;33.15;12.82;;;;;;;-1.63;100.00;100725.06;6253560;28;20045;-70
2023/12/02 05:23:44;;;;;;;38.20;12.10;;;;;;;-1.68;100.00;100721.63;6258899;28;20049;-70
2023/12/02 05:26:45;;;;;;;30.52;9.85;;;;;;;-1.63;100.00;100730.22;6258671;28;20060;-71
2023/12/02 05:29:47;;;;;;;32.30;11.15;;;;;;;-1.47;100.00;100720.69;6259245;28;20041;-71
2023/12/02 05:32:50;;;;;;;33.55;12.82;;;;;;;-1.56;100.00;100730.16;6237923;28;20053;-71
2023/12/02 05:35:51;;;;;;;38.83;13.00;;;;;;;-1.51;100.00;100726.72;6259037;28;20049;-71
2023/12/02 05:38:54;;;;;;;34.15;11.75;;;;;;;-1.54;100.00;100732.75;6252398;28;20046;-71
2023/12/02 05:41:55;;;;;;;42.22;12.90;;;;;;;-1.49;100.00;100733.59;6260851;28;20131;-71
2023/12/02 05:44:57;;;;;;;37.83;13.05;;;;;;;-1.50;100.00;100731.84;6264357;28;20041;-71
2023/12/02 05:47:58;;;;;;;38.97;13.52;;;;;;;-1.47;100.00;100720.69;6263869;28;20041;-71
2023/12/02 05:51:01;;;;;;;43.75;12.68;;;;;;;-1.59;100.00;100729.31;6237536;28;20060;-71
2023/12/02 05:54:04;;;;;;;39.60;13.30;;;;;;;-1.54;100.00;100727.59;6258936;28;20140;-70
2023/12/02 05:57:06;;;;;;;43.38;12.90;;;;;;;-1.47;100.00;100725.84;6264501;28;20060;-69
2023/12/02 06:00:08;;;;;;;46.28;15.25;;;;;;;-1.50;100.00;100725.84;6263757;28;20069;-70
2023/12/02 06:03:09;;;;;;;30.58;12.60;;;;;;;-1.59;100.00;100729.31;6260968;28;20048;-69
2023/12/02 06:06:11;;;;;;;35.20;14.15;;;;;;;-1.62;100.00;100729.34;6258379;28;20536;-69
2023/12/02 06:09:14;;;;;;;41.53;13.57;;;;;;;-1.64;100.00;100731.91;6274491;28;20045;-71
2023/12/02 06:12:15;;;;;;;39.63;11.82;;;;;;;-1.73;100.00;100734.50;6279897;28;20352;-71
2023/12/02 06:15:17;;;;;;;40.15;13.30;;;;;;;-1.81;100.00;100733.72;6265627;28;20052;-71
2023/12/02 06:18:18;;;;;;;33.10;10.65;;;;;;;-1.94;100.00;100726.88;6265890;28;20056;-71
2023/12/02 06:21:19;;;;;;;39.67;12.93;;;;;;;-1.88;100.00;100732.84;6267803;28;20052;-71
2023/12/02 06:24:22;;;;;;;36.22;13.52;;;;;;;-1.81;100.00;100733.72;6266299;28;20041;-71
2023/12/02 06:27:23;;;;;;;36.47;11.52;;;;;;;-1.81;100.00;100736.28;6267457;28;20045;-71
2023/12/02 06:30:25;;;;;;;32.95;11.55;;;;;;;-1.68;100.00;100737.97;6266864;28;20076;-71
2023/12/02 06:33:26;;;;;;;37.03;12.02;;;;;;;-1.70;100.00;100739.66;6265565;28;20045;-71
2023/12/02 06:36:27;;;;;;;32.40;11.43;;;;;;;-1.56;100.00;100750.78;6265413;28;20049;-71
2023/12/02 06:39:30;;;;;;;42.90;12.23;;;;;;;-1.58;100.00;100747.38;6265373;28;20053;-71
2023/12/02 06:42:31;;;;;;;34.95;12.00;;;;;;;-1.58;100.00;100756.81;6265788;28;20049;-71
2023/12/02 06:45:34;;;;;;;44.28;13.80;;;;;;;-1.59;100.00;100752.50;6267101;28;20068;-71
2023/12/02 06:48:35;;;;;;;37.95;11.82;;;;;;;-1.69;100.00;100756.84;6265004;28;20059;-71
2023/12/02 06:51:36;;;;;;;41.35;12.90;;;;;;;-1.70;100.00;100765.44;6267519;28;20369;-71
2023/12/02 06:54:39;;;;;;;40.95;12.38;;;;;;;-1.81;100.00;100767.19;6265203;28;20053;-71
2023/12/02 06:57:41;;;;;;;39.05;12.63;;;;;;;-1.67;100.00;100756.84;6267606;28;20071;-71
2023/12/02 07:00:42;;;;;;;30.60;11.18;;;;;;;-1.64;100.00;100769.69;6279103;28;20132;-70
2023/12/02 07:03:44;;;;;;;42.63;13.25;;;;;;;-1.72;100.00;100772.31;6279087;28;20049;-70
2023/12/02 07:06:45;;;;;;;44.50;13.07;;;;;;;-1.74;100.00;100778.31;6274695;28;20060;-71
2023/12/02 07:09:48;;;;;;;48.08;14.73;;;;;;;-1.68;100.00;100780.88;6261955;28;20037;-71
2023/12/02 07:12:49;;;;;;;45.03;12.55;;;;;;;-1.74;100.00;100786.91;6265701;28;20151;-71
2023/12/02 07:15:51;;;;;;;50.13;14.55;;;;;;;-1.73;100.00;100791.19;6265276;28;20045;-72
2023/12/02 07:18:52;;;;;;;37.55;13.02;;;;;;;-1.55;100.00;100788.56;6265651;28;20053;-71
2023/12/02 07:21:53;;;;;;;41.10;15.50;;;;;;;-1.46;100.00;100787.66;6265017;28;20048;-70
2023/12/02 07:24:56;;;;;;;43.55;13.20;;;;;;;-1.45;100.00;100785.94;6264502;28;20351;-71
2023/12/02 07:27:57;;;;;;;45.70;14.18;;;;;;;-1.70;100.00;100790.34;6264053;28;20335;-71
2023/12/02 07:30:59;;;;;;;38.92;13.23;;;;;;;-1.64;100.00;100798.88;6267043;28;20040;-71
2023/12/02 07:34:00;;;;;;;44.85;13.80;;;;;;;-1.51;100.00;100799.72;6259356;28;20050;-71
2023/12/02 07:37:02;;;;;;;42.30;13.00;;;;;;;-1.50;100.00;100798.84;6263227;28;20056;-71
2023/12/02 07:40:06;;;;;;;42.28;12.88;;;;;;;-1.55;100.00;100806.59;6264498;28;20038;-71
2023/12/02 07:43:08;;;;;;;40.63;13.68;;;;;;;-1.49;100.00;100805.75;6265216;28;20041;-71
2023/12/02 07:46:10;;;;;;;43.65;12.95;;;;;;;-1.46;100.00;100807.44;6255348;28;20046;-71
2023/12/02 07:49:11;;;;;;;36.55;12.32;;;;;;;-1.46;100.00;100815.16;6265730;28;20134;-75
2023/12/02 07:52:13;;;;;;;39.22;13.15;;;;;;;-1.55;100.00;100809.16;6257320;28;20059;-71
2023/12/02 07:55:16;;;;;;;41.35;13.27;;;;;;;-1.50;100.00;100818.63;6247342;28;20060;-70
2023/12/02 07:58:17;;;;;;;53.95;14.18;;;;;;;-1.43;100.00;100825.47;6253312;28;20045;-71
2023/12/02 08:01:18;;;;;;;48.00;14.95;;;;;;;-1.35;100.00;100826.31;6252676;28;20053;-71
2023/12/02 08:04:20;;;;;;;43.72;13.75;;;;;;;-1.47;100.00;100821.19;6253069;28;20049;-71
2023/12/02 08:07:21;;;;;;;33.78;12.73;;;;;;;-1.36;100.00;100833.19;6252711;28;20056;-71
2023/12/02 08:10:24;;;;;;;38.97;13.82;;;;;;;-1.30;100.00;100833.16;6252696;28;20045;-72
2023/12/02 08:13:25;;;;;;;36.60;13.05;;;;;;;-1.34;100.00;100835.75;6252424;28;20068;-71
2023/12/02 08:16:28;;;;;;;46.72;14.57;;;;;;;-1.42;100.00;100829.75;6253133;28;20064;-71
2023/12/02 08:19:29;;;;;;;37.92;12.77;;;;;;;-1.22;100.00;100833.16;6252440;28;20041;-71
2023/12/02 08:22:31;;;;;;;49.65;15.60;;;;;;;-1.31;100.00;100841.75;6252628;28;20077;-71
2023/12/02 08:25:34;;;;;;;36.17;12.52;;;;;;;-1.34;100.00;100835.75;6252287;28;20346;-72
2023/12/02 08:28:35;;;;;;;59.70;16.75;;;;;;;-1.46;100.00;100834.06;6252505;28;20049;-72
2023/12/02 08:31:36;;;;;;;48.08;15.20;;;;;;;-1.35;100.00;100842.63;6251316;28;20060;-71
2023/12/02 08:34:38;;;;;;;38.60;12.75;;;;;;;-1.39;100.00;100848.66;6252035;28;20361;-72
2023/12/02 08:37:39;;;;;;;48.80;14.38;;;;;;;-1.34;100.00;100851.22;6252045;28;20054;-71
2023/12/02 08:40:42;;;;;;;45.20;14.82;;;;;;;-1.18;100.00;100859.75;6251923;28;20050;-71
2023/12/02 08:43:43;;;;;;;47.42;15.13;;;;;;;-1.26;100.00;100854.63;6251757;28;20358;-71
2023/12/02 08:46:44;;;;;;;51.30;16.08;;;;;;;-1.24;100.00;100855.47;6251742;28;20488;-72
2023/12/02 08:49:46;;;;;;;59.97;17.15;;;;;;;-1.22;100.00;100856.34;6251794;28;20441;-71
2023/12/02 08:52:47;;;;;;;42.97;13.80;;;;;;;-1.21;100.00;100868.38;6251658;28;20056;-71
2023/12/02 08:55:49;;;;;;;43.70;14.25;;;;;;;-1.08;100.00;100876.94;6251990;28;20049;-70
2023/12/02 08:58:51;;;;;;;45.35;15.40;;;;;;;-1.24;100.00;100868.38;6251721;28;20052;-70
2023/12/02 09:01:53;;;;;;;44.30;15.02;;;;;;;-1.24;100.00;100872.66;6251261;28;20080;-70
2023/12/02 09:04:54;;;;;;;43.92;13.85;;;;;;;-1.12;100.00;100877.78;6251498;28;20049;-69
2023/12/02 09:07:56;;;;;;;38.72;14.13;;;;;;;-1.13;100.00;100881.25;6251141;28;20053;-70
2023/12/02 09:10:58;;;;;;;42.70;13.88;;;;;;;-1.03;100.00;100881.19;6251400;28;20152;-70
2023/12/02 09:14:00;;;;;;;47.13;15.30;;;;;;;-1.14;100.00;100876.94;6251164;28;20045;-72
2023/12/02 09:17:03;;;;;;;49.85;17.67;;;;;;;-1.07;100.00;100884.66;6251293;28;20049;-70
2023/12/02 09:20:06;;;;;;;40.10;14.50;;;;;;;-1.02;100.00;100877.75;6251269;28;20052;-70
2023/12/02 09:23:08;;;;;;;53.03;14.77;;;;;;;-1.05;100.00;100890.66;6251036;28;20049;-71
2023/12/02 09:26:26;;;;;;;41.92;14.07;;;;;;;-0.91;100.00;100893.19;6251155;28;20323;-70
2023/12/02 09:29:34;;;;;;;47.42;15.60;;;;;;;-0.97;100.00;100893.19;6250173;28;20079;-70
2023/12/02 09:32:45;;;;;;;45.20;12.40;;;;;;;-0.86;100.00;100888.88;6250805;28;20599;-70
2023/12/02 09:35:53;;;;;;;42.63;13.40;;;;;;;-0.84;100.00;100889.72;6250759;28;20366;-70
2023/12/02 09:38:55;;;;;;;43.28;14.18;;;;;;;-0.86;100.00;100894.03;6226267;28;20058;-71
2023/12/02 09:42:01;;;;;;;43.50;14.85;;;;;;;-0.87;100.00;100888.84;6241597;28;20353;-69
2023/12/02 09:45:07;;;;;;;35.20;14.15;;;;;;;-0.93;100.00;100888.91;6249997;28;20045;-70
2023/12/02 09:48:20;;;;;;;44.25;13.57;;;;;;;-0.95;100.00;100896.66;6247811;28;20342;-70
2023/12/02 09:51:36;;;;;;;34.58;11.88;;;;;;;-0.83;100.00;100877.66;6243747;28;20076;-71
2023/12/02 09:54:42;;;;;;;44.85;12.77;;;;;;;-0.81;100.00;100884.56;6249741;28;20056;-70
2023/12/02 09:57:48;;;;;;;35.47;13.00;;;;;;;-0.93;100.00;100887.16;6249341;28;20049;-70
2023/12/02 10:00:53;;;;;;;40.30;12.95;;;;;;;-1.00;100.00;100893.19;6245491;28;20045;-70
2023/12/02 10:04:03;;;;;;;32.25;12.02;;;;;;;-0.97;100.00;100890.63;6249398;28;20057;-70
2023/12/02 10:07:16;;;;;;;39.75;13.48;;;;;;;-0.93;100.00;100894.91;6248474;28;20144;-70
2023/12/02 10:10:22;;;;;;;40.08;12.77;;;;;;;-0.94;100.00;100895.78;6248086;28;20050;-71
2023/12/02 10:13:37;;;;;;;44.85;13.60;;;;;;;-0.80;100.00;100896.56;6239278;28;20447;-70
2023/12/02 10:16:41;;;;;;;35.15;12.95;;;;;;;-0.93;100.00;100899.22;6237830;28;20064;-70
2023/12/02 10:19:51;;;;;;;39.67;13.00;;;;;;;-0.94;100.00;100900.94;6238948;28;20052;-70
2023/12/02 10:22:58;;;;;;;50.50;15.57;;;;;;;-0.95;100.00;100890.59;6241181;28;20547;-70
2023/12/02 10:26:06;;;;;;;31.67;11.95;;;;;;;-0.84;100.00;100905.19;6239610;28;20439;-70
2023/12/02 10:29:17;;;;;;;41.88;14.02;;;;;;;-0.81;100.00;100892.28;6241052;28;20049;-69
2023/12/02 10:32:30;;;;;;;39.35;11.77;;;;;;;-0.87;100.00;100894.03;6242687;28;20049;-69
2023/12/02 10:35:36;;;;;;;38.75;13.27;;;;;;;-0.72;100.00;100891.41;6247870;28;20057;-72
2023/12/02 10:38:52;;;;;;;35.63;11.40;;;;;;;-0.63;100.00;100893.06;6247052;28;20429;-72
2023/12/02 10:42:01;;;;;;;33.95;12.43;;;;;;;-0.64;100.00;100888.75;6241944;28;20052;-72
2023/12/02 10:45:06;;;;;;;35.42;12.48;;;;;;;-0.77;100.00;100891.41;6247613;28;20053;-72
2023/12/02 10:48:10;;;;;;;40.15;13.30;;;;;;;-0.80;100.00;100893.16;6248021;28;20049;-71
2023/12/02 10:51:15;;;;;;;31.02;11.82;;;;;;;-0.96;100.00;100896.63;6249714;28;20361;-71
2023/12/02 10:54:20;;;;;;;36.08;10.38;;;;;;;-0.86;100.00;100895.75;6250581;28;20509;-70
2023/12/02 10:57:22;;;;;;;37.55;11.68;;;;;;;-0.90;100.00;100894.06;6254593;28;20144;-70
2023/12/02 11:00:30;;;;;;;37.88;12.35;;;;;;;-0.89;100.00;100888.88;6254274;28;20049;-71
2023/12/02 11:03:34;;;;;;;31.33;11.65;;;;;;;-0.87;100.00;100884.56;6254200;28;20049;-71
2023/12/02 11:06:38;;;;;;;31.20;10.18;;;;;;;-0.85;100.00;100895.75;6254080;28;20136;-70
2023/12/02 11:09:47;;;;;;;38.60;10.85;;;;;;;-0.75;100.00;100895.69;6253899;28;20358;-71
2023/12/02 11:12:53;;;;;;;26.67;10.20;;;;;;;-0.69;100.00;100899.09;6253789;28;20045;-71
2023/12/02 11:16:14;;;;;;;43.03;11.52;;;;;;;-0.70;100.00;100896.53;6254180;28;20049;-71
2023/12/02 11:19:38;;;;;;;28.48;10.68;;;;;;;-0.58;100.00;100904.22;6253890;28;20456;-70
2023/12/02 11:22:56;;;;;;;35.88;12.63;;;;;;;-0.64;100.00;100902.50;6253785;28;20053;-70
2023/12/02 11:26:12;;;;;;;31.03;11.43;;;;;;;-0.61;100.00;100899.91;6254060;28;20057;-71
2023/12/02 11:29:18;;;;;;;28.08;10.50;;;;;;;-0.79;100.00;100902.59;6253779;28;20049;-70
2023/12/02 11:32:28;;;;;;;32.03;10.27;;;;;;;-0.81;100.00;100902.59;6253745;28;20061;-71
2023/12/02 11:35:36;;;;;;;32.80;10.60;;;;;;;-0.80;100.00;100895.72;6253438;28;20057;-71
2023/12/02 11:38:46;;;;;;;32.92;11.70;;;;;;;-0.92;100.00;100891.47;6253201;28;20358;-71
2023/12/02 11:41:54;;;;;;;32.55;11.30;;;;;;;-0.81;100.00;100899.16;6253132;28;20358;-70
2023/12/02 11:45:06;;;;;;;37.78;11.77;;;;;;;-0.75;100.00;100901.72;6253404;28;20430;-71
2023/12/02 11:48:19;;;;;;;36.33;11.32;;;;;;;-0.58;100.00;100894.75;6253308;28;20052;-70
2023/12/02 11:51:34;;;;;;;41.10;11.82;;;;;;;-0.71;100.00;100903.41;6253210;28;20045;-70
2023/12/02 11:54:45;;;;;;;42.63;12.15;;;;;;;-0.60;100.00;100896.47;6253039;28;20056;-70
2023/12/02 11:57:59;;;;;;;42.95;13.85;;;;;;;-0.74;100.00;100898.25;6248644;28;20140;-70
2023/12/02 12:01:13;;;;;;;35.85;12.68;;;;;;;-0.58;100.00;100899.91;6247698;28;20041;-71
2023/12/02 12:04:37;;;;;;;37.70;11.98;;;;;;;-0.61;100.00;100896.50;6251791;28;20056;-70
2023/12/02 12:07:54;;;;;;;44.88;13.75;;;;;;;-0.68;100.00;100897.38;6251762;28;20045;-71
2023/12/02 12:10:57;;;;;;;43.83;13.68;;;;;;;-0.75;100.00;100898.28;6251996;28;20132;-71
2023/12/02 12:14:00;;;;;;;40.00;13.18;;;;;;;-0.63;100.00;100905.97;6252543;28;20429;-71
2023/12/02 12:17:01;;;;;;;42.05;14.10;;;;;;;-0.56;100.00;100910.22;6240835;28;20049;-72
2023/12/02 12:20:18;;;;;;;36.63;12.68;;;;;;;-0.68;100.00;100911.16;6240321;28;20045;-71
2023/12/02 12:23:23;;;;;;;38.55;13.05;;;;;;;-0.42;100.00;100912.72;6246312;28;20095;-71
2023/12/02 12:26:24;;;;;;;41.72;14.38;;;;;;;-0.41;100.00;100917.00;6246155;28;20053;-71
2023/12/02 12:29:26;;;;;;;37.78;13.45;;;;;;;-0.31;100.00;100914.41;6240593;28;20046;-70
2023/12/02 12:32:27;;;;;;;46.20;15.07;;;;;;;-0.45;100.00;100920.50;6257068;28;20083;-70
2023/12/02 12:35:31;;;;;;;39.38;12.23;;;;;;;-0.49;100.00;100918.81;6262952;28;20048;-69
2023/12/02 12:38:33;;;;;;;42.03;14.40;;;;;;;-0.68;100.00;100913.75;6258415;28;20045;-70
2023/12/02 12:41:37;;;;;;;42.85;13.68;;;;;;;-0.62;100.00;100918.84;6248987;28;20072;-71
2023/12/02 12:44:40;;;;;;;42.17;13.63;;;;;;;-0.59;100.00;100916.28;6241003;28;20335;-76
2023/12/02 12:47:43;;;;;;;37.65;13.23;;;;;;;-0.45;100.00;100912.78;6251754;28;20052;-71
2023/12/02 12:50:46;;;;;;;43.17;13.73;;;;;;;-0.44;100.00;100925.66;6251304;28;20437;-75
2023/12/02 12:53:59;;;;;;;46.88;14.27;;;;;;;-0.57;100.00;100929.16;6251569;28;20053;-73
2023/12/02 12:57:10;;;;;;;43.53;14.52;;;;;;;-0.47;100.00;100930.81;6250165;28;20046;-72
2023/12/02 13:00:16;;;;;;;37.15;12.68;;;;;;;-0.42;100.00;100935.97;6251391;28;20046;-72
2023/12/02 13:03:51;;;;;;;45.53;14.05;;;;;;;-0.43;100.00;100944.59;6250996;28;20593;-72
2023/12/02 13:07:03;;;;;;;33.88;11.98;;;;;;;-0.42;100.00;100949.72;6144613;28;20071;-71
2023/12/02 13:10:08;;;;;;;38.30;12.93;;;;;;;-0.67;100.00;100946.41;6237280;28;20085;-71
2023/12/02 13:13:15;;;;;;;34.35;12.35;;;;;;;-0.70;100.00;100948.13;6251367;28;20053;-72
2023/12/02 13:16:17;;;;;;;34.28;11.32;;;;;;;-0.69;100.00;100952.44;6251096;28;20049;-72
2023/12/02 13:19:19;;;;;;;39.30;12.18;;;;;;;-0.66;100.00;100945.53;6250597;28;20357;-72
2023/12/02 13:22:24;;;;;;;31.30;10.77;;;;;;;-0.79;100.00;100952.47;6250776;28;20042;-72
2023/12/02 13:25:29;;;;;;;32.88;11.68;;;;;;;-0.67;100.00;100954.16;6251001;28;20053;-73
2023/12/02 13:28:37;;;;;;;33.25;12.27;;;;;;;-0.55;100.00;100950.66;6250588;28;20524;-72
2023/12/02 13:31:40;;;;;;;33.42;11.88;;;;;;;-0.53;100.00;100952.38;6250845;28;20050;-72
2023/12/02 13:34:49;;;;;;;34.88;11.70;;;;;;;-0.49;100.00;100963.53;6250778;28;20049;-73
2023/12/02 13:38:05;;;;;;;36.03;11.75;;;;;;;-0.38;100.00;100966.06;6250603;28;20349;-73
2023/12/02 13:41:13;;;;;;;32.88;10.95;;;;;;;-0.33;100.00;100961.72;6250549;28;20041;-72
2023/12/02 13:44:16;;;;;;;38.92;10.88;;;;;;;-0.38;100.00;100961.75;6250365;28;20045;-72
2023/12/02 13:47:24;;;;;;;37.83;12.27;;;;;;;-0.39;100.00;100965.22;6250605;28;20049;-72